AFF - Davis Fld (Usaf Academy Fld)

Pirep is a free, collaborative database of all public and private airports located within the United States. All pilots are welcome to contribute, edit, and improve any airport they have local knowledge about, no registration required.
Are you familiar with this airport? Help out other pilots by adding your local knowledge.
Uploaded photos will be licensed under a CC BY-SA 4.0 license. Please only upload photos you have the rights to use.
Tags
Undocu­mented
METAR / TAF
Edit Tags
Food
Camping
Lodging
Car Rental
Bicycles
Swimming
Golfing
Fishing
Hot Springs
Museum
Flying Clubs
Airpark
Upcoming Events
No upcoming events. Is anything happening here soon?
*
*
*

Where exactly on/near the airport is this event taking place?

Is there a webpage with more information for this event?

Who should be contacted for more information?

What is this event all about?

Repeat every
Description
Transient Parking
Fuel Location
Landing & Tie-down Fees
Crew Car Availability
Flying Clubs
WiFi Access
Airport Statistics
Location: Colorado Springs, CO
Elevation: 6,576ft
Sectional: Denver
Activation date: Jan 1943
Fuel: None
Runway 16C/34C: 4,501ft
Runway 16R/34L: 4,500ft
Runway 16L/34R: 3,513ft
Runway 08/26: 2,493ft
Access: Private to everyone
This is a military facility.
Current Weather — VFR
  • Weather data is strictly informational and not for flight planning purposes.
  • METAR
    2024-04-22 06:55:00 MDT
    Ceiling Wind Temperature Dewpoint Weather Visbility
    21,000ft 360° @ 10kt 38°F 29°F N/A 10SM
    Clouds: Overcast @ 21,000ft
    Raw: KAFF 221255Z AUTO 36010KT 10SM OVC210 03/M01 A3000 RMK AO2 SLP136 T00341014
  • TAF
    2024-04-22 06:00:00 MDT – 2024-04-22 09:00:00 MDT
    Ceiling Wind Weather Visbility
    23,000ft 330° @ 9kt N/A 6SM
    Clouds: Scattered @ 18,000ft, Broken @ 23,000ft
    Raw: TAF AMD KAFF 221206Z 2212/2317 33009KT 9999 SCT180 BKN230 530202 560409 QNH2994INS ROTOR CONDS EXIST WND 200V140 BECMG 2215/2216 27012G20KT 9999 SCT160 BKN200 520009 QNH2986INS TEMPO 2216/2220 27015G25KT 530009 BECMG 2219/2220 29015G25KT 9999 BKN130 520009 QNH2984INS BECMG 2301/2302 32012KT 9999 SCT140 530309 QNH2986INS BECMG 2310/2311 36015G25KT 9999 SCT035 520004 QNH2996INS TX23/2221Z TNM02/2213Z
  • TAF
    2024-04-22 09:00:00 MDT – 2024-04-22 13:00:00 MDT
    Ceiling Wind Weather Visbility
    20,000ft 270° @ 12kt, gusts 20kt N/A 6SM
    Clouds: Scattered @ 16,000ft, Broken @ 20,000ft
    Raw: TAF AMD KAFF 221206Z 2212/2317 33009KT 9999 SCT180 BKN230 530202 560409 QNH2994INS ROTOR CONDS EXIST WND 200V140 BECMG 2215/2216 27012G20KT 9999 SCT160 BKN200 520009 QNH2986INS TEMPO 2216/2220 27015G25KT 530009 BECMG 2219/2220 29015G25KT 9999 BKN130 520009 QNH2984INS BECMG 2301/2302 32012KT 9999 SCT140 530309 QNH2986INS BECMG 2310/2311 36015G25KT 9999 SCT035 520004 QNH2996INS TX23/2221Z TNM02/2213Z
  • TAF
    2024-04-22 10:00:00 MDT – 2024-04-22 14:00:00 MDT
    Ceiling Wind Weather Visbility
    Sky clear 270° @ 15kt, gusts 25kt N/A SM
    Raw: TAF AMD KAFF 221206Z 2212/2317 33009KT 9999 SCT180 BKN230 530202 560409 QNH2994INS ROTOR CONDS EXIST WND 200V140 BECMG 2215/2216 27012G20KT 9999 SCT160 BKN200 520009 QNH2986INS TEMPO 2216/2220 27015G25KT 530009 BECMG 2219/2220 29015G25KT 9999 BKN130 520009 QNH2984INS BECMG 2301/2302 32012KT 9999 SCT140 530309 QNH2986INS BECMG 2310/2311 36015G25KT 9999 SCT035 520004 QNH2996INS TX23/2221Z TNM02/2213Z
  • TAF
    2024-04-22 13:00:00 MDT – 2024-04-22 19:00:00 MDT
    Ceiling Wind Weather Visbility
    13,000ft 290° @ 15kt, gusts 25kt N/A 6SM
    Clouds: Broken @ 13,000ft
    Raw: TAF AMD KAFF 221206Z 2212/2317 33009KT 9999 SCT180 BKN230 530202 560409 QNH2994INS ROTOR CONDS EXIST WND 200V140 BECMG 2215/2216 27012G20KT 9999 SCT160 BKN200 520009 QNH2986INS TEMPO 2216/2220 27015G25KT 530009 BECMG 2219/2220 29015G25KT 9999 BKN130 520009 QNH2984INS BECMG 2301/2302 32012KT 9999 SCT140 530309 QNH2986INS BECMG 2310/2311 36015G25KT 9999 SCT035 520004 QNH2996INS TX23/2221Z TNM02/2213Z
  • TAF
    2024-04-22 19:00:00 MDT – 2024-04-23 04:00:00 MDT
    Ceiling Wind Weather Visbility
    Sky clear 320° @ 12kt N/A 6SM
    Clouds: Scattered @ 14,000ft
    Raw: TAF AMD KAFF 221206Z 2212/2317 33009KT 9999 SCT180 BKN230 530202 560409 QNH2994INS ROTOR CONDS EXIST WND 200V140 BECMG 2215/2216 27012G20KT 9999 SCT160 BKN200 520009 QNH2986INS TEMPO 2216/2220 27015G25KT 530009 BECMG 2219/2220 29015G25KT 9999 BKN130 520009 QNH2984INS BECMG 2301/2302 32012KT 9999 SCT140 530309 QNH2986INS BECMG 2310/2311 36015G25KT 9999 SCT035 520004 QNH2996INS TX23/2221Z TNM02/2213Z
  • TAF
    2024-04-23 04:00:00 MDT – 2024-04-23 11:00:00 MDT
    Ceiling Wind Weather Visbility
    Sky clear 360° @ 15kt, gusts 25kt N/A 6SM
    Clouds: Scattered @ 3,500ft
    Raw: TAF AMD KAFF 221206Z 2212/2317 33009KT 9999 SCT180 BKN230 530202 560409 QNH2994INS ROTOR CONDS EXIST WND 200V140 BECMG 2215/2216 27012G20KT 9999 SCT160 BKN200 520009 QNH2986INS TEMPO 2216/2220 27015G25KT 530009 BECMG 2219/2220 29015G25KT 9999 BKN130 520009 QNH2984INS BECMG 2301/2302 32012KT 9999 SCT140 530309 QNH2986INS BECMG 2310/2311 36015G25KT 9999 SCT035 520004 QNH2996INS TX23/2221Z TNM02/2213Z
Click/tap to add an annotation marker to the map
Airport Webcams
No webcams added yet.
Direct links to live image URLs will be displayed inline on this page. URLs to separate webpages will be linked to.
URL:
Direct links to live image URLs will be displayed inline on this page. URLs to separate webpages will be linked to.
URL:
Remarks
  • No maint or tsnt svc avbl.
  • Caution: use ctn for uas ops 3-6 nm nw sfc-8500 ft msl over usaf academy property.
  • Fuel-a++(mil)
  • Comsec stor unavbl.
  • Caution: numerous nstd mrks exist on afld.
  • See special notice us air force academy volume flt trng areas for addn info.
  • Rstd: airfield offl bus only. ppr must be coord 72 hr in advance with afld mgmt, dsn: 333-2526, c:719-333-2526.
  • Caution: ceiling may be lower to n, e, and w due to rising terrain. hi density vfr stu pilot trng, gldr trng and prcht ops fr sfc-17500 ft msl wi 5 nm of afld. use caution for uas ops 3-6 nm nw sfc-8500 ft msl ovr usaf academy property. aerodrome rwy cc not reported.
Comments
Leave a comment What was your experience like at this airport?